Sao Francisco de Assis, Brazil
Current Conditions -  °F | °C
As of 8:00 AM on Wednesday 26 Nov 2014 (Local Time) from SBSM Reporting Station
Broken Clouds Broken Clouds  
Wind Chill: 70°   Ceiling: 2000
Heat Index: 70°   Visibility: 6mi
Dew Point: 66°   Wind: 6mph
Humidity: 88%   Direction: 110°ESE
Pressure: 29.83"   Gusts: NA
Location:  29.55°S, 55.13°W
Report Text: SBSM 261000Z 11005KT 9999 SCT009 BKN020 21/19 Q1010
Loading
Personal Weather Stations






























Interactive Weather Map New forecast layout! Learn more

10-Day Weather Forecast

Advertisements
Track Severe Weather on mobile